Time;durP1;ratioP1;P1;durP2;ratioP2;P2;SDS_P1;SDS_P2;PMS_P1;PMS_P2;Temp;Humidity;BMP_temperature;BMP_pressure;BME280_temperature;BME280_humidity;BME280_pressure;Samples;Min_cycle;Max_cycle;Signal;HPM_P1;HPM_P2
2022/01/14 00:04:09;;;;;;;21.67;11.43;;;;;;;4.88;100.00;101058.00;10498610;28;20629;-70
2022/01/14 00:09:14;;;;;;;28.40;13.50;;;;;;;4.80;100.00;101066.34;10498718;28;20557;-67
2022/01/14 00:14:24;;;;;;;20.27;11.47;;;;;;;4.85;100.00;101060.47;10498470;28;20212;-66
2022/01/14 00:19:29;;;;;;;18.77;10.60;;;;;;;4.90;100.00;101065.75;10498150;28;20247;-70
2022/01/14 00:31:39;;;;;;;24.27;11.23;;;;;;;4.88;100.00;101036.53;10498359;28;20216;-70
2022/01/14 00:35:18;;;;;;;23.23;11.57;;;;;;;4.89;100.00;101027.97;10497727;28;20557;-68
2022/01/14 00:40:22;;;;;;;21.27;11.53;;;;;;;4.88;100.00;101018.53;10499787;28;20243;-68
2022/01/14 00:45:25;;;;;;;19.50;11.00;;;;;;;4.88;100.00;101001.41;10539918;28;20220;-70
2022/01/14 00:50:30;;;;;;;18.00;10.60;;;;;;;4.87;100.00;100998.81;10539083;28;20219;-69
2022/01/14 00:55:40;;;;;;;18.87;9.60;;;;;;;4.90;100.00;100991.16;10539471;28;20216;-69
2022/01/14 01:00:43;;;;;;;17.47;9.50;;;;;;;4.96;100.00;101001.56;10538905;28;20652;-66
2022/01/14 01:05:47;;;;;;;19.73;9.57;;;;;;;4.87;100.00;100979.09;10541680;28;20709;-69
2022/01/14 01:10:51;;;;;;;21.70;11.63;;;;;;;4.94;100.00;100982.66;10548636;28;20223;-72
2022/01/14 01:15:54;;;;;;;36.07;16.63;;;;;;;4.90;100.00;100975.72;10547398;28;20219;-66
2022/01/14 01:21:01;;;;;;;20.50;9.83;;;;;;;4.93;100.00;100965.50;10547055;28;20319;-69
2022/01/14 01:26:11;;;;;;;21.10;10.73;;;;;;;4.90;100.00;100950.84;10547593;28;20661;-68
2022/01/14 01:36:33;;;;;;;22.37;10.40;;;;;;;4.88;100.00;100929.41;10546283;28;20229;-69
2022/01/14 01:41:38;;;;;;;26.97;10.97;;;;;;;4.96;100.00;100933.00;10546634;28;20645;-67
2022/01/14 01:46:45;;;;;;;22.63;10.23;;;;;;;4.88;100.00;100942.28;10537756;28;20216;-70
2022/01/14 01:51:51;;;;;;;21.50;10.50;;;;;;;5.04;100.00;100930.63;10504016;28;20538;-68
2022/01/14 01:56:54;;;;;;;15.87;9.20;;;;;;;5.01;100.00;100946.84;10504259;28;20222;-67
2022/01/14 02:01:59;;;;;;;24.73;9.33;;;;;;;4.94;100.00;100915.78;10503665;28;20231;-67
2022/01/14 02:07:04;;;;;;;21.10;11.40;;;;;;;4.96;100.00;100889.28;10503143;28;20232;-66
2022/01/14 02:12:11;;;;;;;19.30;8.93;;;;;;;4.95;100.00;100877.28;10503466;28;20309;-69
2022/01/14 02:17:45;;;;;;;18.57;10.57;;;;;;;4.96;100.00;100862.69;10502434;28;20195;-69
2022/01/14 02:22:53;;;;;;;21.37;10.70;;;;;;;4.79;100.00;100874.34;10502718;28;20683;-66
2022/01/14 02:27:58;;;;;;;21.20;10.67;;;;;;;4.80;100.00;100864.06;10503102;28;20614;-67
2022/01/14 02:33:01;;;;;;;20.70;10.40;;;;;;;4.83;100.00;100856.44;10502543;28;20223;-68
2022/01/14 02:38:07;;;;;;;22.80;9.73;;;;;;;4.88;100.00;100841.09;10502272;28;20318;-69
2022/01/14 02:43:13;;;;;;;21.50;10.83;;;;;;;4.83;100.00;100841.03;10527959;28;20223;-69
2022/01/14 02:48:17;;;;;;;21.60;10.13;;;;;;;4.91;100.00;100811.19;10543752;28;20747;-68
2022/01/14 02:53:29;;;;;;;23.30;11.43;;;;;;;4.82;100.00;100808.41;10543717;28;20211;-70
2022/01/14 02:58:34;;;;;;;35.97;19.77;;;;;;;4.95;100.00;100810.41;10543611;28;20238;-66
2022/01/14 03:03:38;;;;;;;21.33;10.40;;;;;;;4.74;100.00;100787.69;10543095;28;20228;-67
2022/01/14 03:08:43;;;;;;;22.87;9.90;;;;;;;4.73;100.00;100793.69;10543303;28;20191;-69
2022/01/14 03:13:47;;;;;;;20.30;9.70;;;;;;;4.78;100.00;100785.19;10543026;28;20198;-68
2022/01/14 03:18:53;;;;;;;14.60;7.93;;;;;;;4.80;100.00;100819.53;10542563;28;20227;-68
2022/01/14 03:24:15;;;;;;;15.33;8.50;;;;;;;4.71;100.00;100808.19;10542671;28;20175;-71
2022/01/14 03:29:19;;;;;;;17.90;7.80;;;;;;;4.65;100.00;100791.78;10541252;28;20229;-68
2022/01/14 03:34:22;;;;;;;16.30;8.37;;;;;;;4.70;100.00;100821.91;10541990;28;20187;-69
2022/01/14 03:39:27;;;;;;;15.83;8.47;;;;;;;4.62;100.00;100823.41;10541980;28;20672;-67
2022/01/14 03:44:31;;;;;;;13.53;8.70;;;;;;;4.78;100.00;100819.47;10504623;28;20664;-71
2022/01/14 03:49:34;;;;;;;15.57;8.47;;;;;;;4.68;100.00;100817.53;10149496;28;10000179;-66
2022/01/14 03:54:39;;;;;;;16.17;8.73;;;;;;;4.75;100.00;100801.41;10502576;28;20320;-67
2022/01/14 03:59:42;;;;;;;16.83;8.67;;;;;;;4.59;100.00;100822.53;10502386;28;20219;-68
2022/01/14 04:04:45;;;;;;;16.30;8.57;;;;;;;4.63;100.00;100811.44;10502098;28;20224;-68
2022/01/14 04:09:50;;;;;;;15.03;8.10;;;;;;;4.74;100.00;100809.97;10501999;28;20210;-67
2022/01/14 04:20:14;;;;;;;14.90;7.23;;;;;;;4.64;100.00;100772.91;10501526;28;20333;-67
2022/01/14 04:25:24;;;;;;;10.03;6.03;;;;;;;4.65;100.00;100782.38;10501753;28;20192;-66
2022/01/14 04:30:27;;;;;;;12.93;7.27;;;;;;;4.59;100.00;100760.84;10501549;28;20285;-65
2022/01/14 04:35:31;;;;;;;13.57;6.90;;;;;;;4.63;100.00;100745.50;10501467;28;20192;-66
2022/01/14 04:40:36;;;;;;;12.30;6.57;;;;;;;4.68;100.00;100725.88;10500666;28;20252;-62
2022/01/14 04:45:54;;;;;;;12.57;6.57;;;;;;;4.80;100.00;100719.25;10501447;28;20218;-66
2022/01/14 04:50:57;;;;;;;12.43;6.57;;;;;;;4.74;100.00;100725.13;10501343;28;20192;-67
2022/01/14 04:56:02;;;;;;;13.87;6.10;;;;;;;4.72;100.00;100707.13;10501024;28;20283;-66
2022/01/14 05:01:05;;;;;;;11.20;5.60;;;;;;;4.82;100.00;100704.69;10500750;28;20248;-66
2022/01/14 05:06:09;;;;;;;10.90;5.00;;;;;;;4.88;100.00;100705.69;10500477;28;20244;-66
2022/01/14 05:11:24;;;;;;;12.10;4.97;;;;;;;4.95;100.00;100706.66;10500463;28;20200;-66
2022/01/14 05:16:27;;;;;;;8.80;4.67;;;;;;;4.98;100.00;100717.88;10500517;28;20233;-64
2022/01/14 05:21:31;;;;;;;24.83;13.47;;;;;;;5.04;100.00;100702.53;10500423;28;20665;-66
2022/01/14 05:26:35;;;;;;;10.53;4.77;;;;;;;4.99;100.00;100681.03;10490879;28;20196;-66
2022/01/14 05:31:43;;;;;;;9.93;4.40;;;;;;;5.06;100.00;100664.84;10458154;28;20221;-64
2022/01/14 05:36:46;;;;;;;11.47;4.83;;;;;;;5.01;100.00;100660.47;10479399;28;20648;-67
2022/01/14 05:41:52;;;;;;;10.03;5.03;;;;;;;5.10;100.00;100647.75;10491010;28;20222;-69
2022/01/14 05:46:57;;;;;;;9.00;4.10;;;;;;;5.10;100.00;100638.34;10499441;28;20196;-69
2022/01/14 05:52:00;;;;;;;8.63;3.57;;;;;;;5.14;100.00;100641.84;10499480;28;20222;-69
2022/01/14 05:57:05;;;;;;;9.43;3.77;;;;;;;5.05;100.00;100619.41;10506603;28;20196;-69
2022/01/14 06:02:08;;;;;;;8.33;3.30;;;;;;;5.14;100.00;100639.28;10507005;28;20208;-66
2022/01/14 06:07:12;;;;;;;20.23;10.17;;;;;;;5.10;100.00;100637.47;10506075;28;20231;-64
2022/01/14 06:12:16;;;;;;;9.27;3.23;;;;;;;5.13;100.00;100646.09;10506416;28;20192;-69
2022/01/14 06:17:22;;;;;;;25.07;11.27;;;;;;;5.27;100.00;100624.03;10505897;28;20648;-67
2022/01/14 06:22:26;;;;;;;9.60;3.60;;;;;;;5.21;100.00;100611.06;10506011;28;20243;-67
2022/01/14 06:27:32;;;;;;;49.53;21.13;;;;;;;5.49;100.00;100596.91;10469839;28;20569;-71
2022/01/14 06:32:41;;;;;;;7.80;3.53;;;;;;;5.43;100.00;100597.69;10464390;28;20197;-65
2022/01/14 06:37:45;;;;;;;6.80;3.70;;;;;;;5.47;100.00;100599.44;10464234;28;20299;-64
2022/01/14 06:42:49;;;;;;;6.73;3.50;;;;;;;5.39;100.00;100603.63;10463939;28;20299;-66
2022/01/14 06:47:54;;;;;;;5.80;3.03;;;;;;;5.38;100.00;100631.94;10463816;28;20272;-66
2022/01/14 06:52:57;;;;;;;6.97;2.97;;;;;;;5.23;100.00;100599.09;10463164;28;20200;-70
2022/01/14 06:58:01;;;;;;;12.73;3.43;;;;;;;5.15;100.00;100589.53;10463136;28;20212;-65
2022/01/14 07:03:05;;;;;;;6.83;3.07;;;;;;;5.21;100.00;100594.78;10462841;28;20246;-67
2022/01/14 07:08:08;;;;;;;8.10;3.40;;;;;;;5.26;100.00;100590.56;10463114;28;20305;-67
2022/01/14 07:13:12;;;;;;;9.63;2.53;;;;;;;5.26;100.00;100586.31;10462896;28;20217;-66
2022/01/14 07:18:16;;;;;;;7.40;3.23;;;;;;;5.14;100.00;100569.81;10497975;28;20216;-69
2022/01/14 07:23:19;;;;;;;5.43;2.70;;;;;;;5.13;100.00;100568.06;10503903;28;20705;-63
2022/01/14 07:28:24;;;;;;;16.73;6.27;;;;;;;5.21;100.00;100551.06;10503173;28;20341;-65
2022/01/14 07:33:27;;;;;;;8.40;3.93;;;;;;;5.16;100.00;100550.97;10503347;28;20224;-66
2022/01/14 07:38:30;;;;;;;8.70;3.30;;;;;;;5.22;100.00;100550.19;10502488;28;20315;-65
2022/01/14 07:43:35;;;;;;;9.10;3.50;;;;;;;5.35;100.00;100559.84;10502852;28;20555;-65
2022/01/14 07:48:39;;;;;;;6.30;3.50;;;;;;;5.28;100.00;100546.00;10502036;28;20230;-65
2022/01/14 07:53:42;;;;;;;7.23;3.73;;;;;;;5.22;100.00;100530.50;10502968;28;20299;-67
2022/01/14 07:58:47;;;;;;;7.43;3.70;;;;;;;5.29;100.00;100529.72;10501960;28;20675;-71
2022/01/14 08:03:50;;;;;;;7.77;3.90;;;;;;;5.29;100.00;100510.84;10501836;28;20243;-65
2022/01/14 08:08:53;;;;;;;7.83;4.03;;;;;;;5.20;100.00;100508.16;10501576;28;20212;-67
2022/01/14 08:13:58;;;;;;;8.73;4.60;;;;;;;5.21;100.00;100521.03;10501544;28;20539;-66
2022/01/14 08:19:01;;;;;;;6.73;3.63;;;;;;;5.23;100.00;100503.06;10501115;28;20296;-66
2022/01/14 08:24:04;;;;;;;7.60;4.13;;;;;;;5.18;100.00;100500.41;10501198;28;20231;-66
2022/01/14 08:29:09;;;;;;;6.73;3.40;;;;;;;5.27;100.00;100497.09;10500731;28;20646;-67
2022/01/14 08:34:12;;;;;;;9.40;3.77;;;;;;;5.35;100.00;100498.09;10501869;28;20227;-69
2022/01/14 08:39:16;;;;;;;9.57;4.30;;;;;;;5.29;100.00;100485.13;10500777;28;20307;-68
2022/01/14 08:44:20;;;;;;;10.53;4.63;;;;;;;5.21;100.00;100510.72;10500646;28;20259;-64
2022/01/14 08:49:25;;;;;;;7.97;4.53;;;;;;;5.28;100.00;100485.97;10500261;28;20234;-69
2022/01/14 08:54:29;;;;;;;11.73;4.50;;;;;;;5.31;100.00;100497.19;10500899;28;20299;-68
2022/01/14 08:59:33;;;;;;;8.50;4.67;;;;;;;5.31;100.00;100484.31;10500337;28;20220;-67
2022/01/14 09:04:37;;;;;;;7.37;4.57;;;;;;;5.23;100.00;100497.91;10500275;28;20815;-68
2022/01/14 09:09:41;;;;;;;8.50;4.73;;;;;;;5.38;100.00;100488.69;10500060;28;20231;-70
2022/01/14 09:14:45;;;;;;;8.03;4.53;;;;;;;5.48;100.00;100481.94;10500558;28;20613;-65
2022/01/14 09:19:48;;;;;;;11.23;5.00;;;;;;;5.45;100.00;100469.03;10499595;28;20216;-65
2022/01/14 09:24:52;;;;;;;8.33;4.63;;;;;;;5.56;100.00;100464.84;10499918;28;20238;-68
2022/01/14 09:29:58;;;;;;;8.10;3.83;;;;;;;5.57;100.00;100469.19;10505858;28;20212;-68
2022/01/14 09:35:03;;;;;;;11.23;4.13;;;;;;;5.64;100.00;100470.97;10508081;28;20303;-64
2022/01/14 09:40:07;;;;;;;7.97;4.60;;;;;;;5.64;100.00;100469.25;10507031;28;20227;-66
2022/01/14 09:45:12;;;;;;;20.43;9.13;;;;;;;5.81;100.00;100457.44;10507403;28;20557;-64
2022/01/14 09:50:20;;;;;;;10.77;7.07;;;;;;;5.92;100.00;100447.25;10506664;28;20214;-65
2022/01/14 09:55:24;;;;;;;8.10;4.17;;;;;;;5.91;100.00;100471.31;10507306;28;20212;-65
2022/01/14 10:00:29;;;;;;;8.07;4.23;;;;;;;5.90;100.00;100467.00;10506171;28;20234;-62
2022/01/14 10:05:35;;;;;;;8.07;3.70;;;;;;;5.96;100.00;100438.72;10500774;28;20243;-63
2022/01/14 10:10:45;;;;;;;7.50;3.43;;;;;;;5.94;100.00;100424.97;10465452;28;20533;-66
2022/01/14 10:15:51;;;;;;;8.20;3.27;;;;;;;5.92;100.00;100413.78;10465170;28;20686;-65
2022/01/14 10:21:00;;;;;;;7.33;3.40;;;;;;;5.93;100.00;100405.22;10465157;28;20295;-66
2022/01/14 10:26:04;;;;;;;7.37;3.30;;;;;;;6.07;100.00;100397.59;10464944;28;20305;-64
2022/01/14 10:31:08;;;;;;;5.33;2.90;;;;;;;5.89;100.00;100395.72;10464491;28;20569;-64
2022/01/14 10:36:21;;;;;;;5.97;3.17;;;;;;;5.83;100.00;100387.97;10464077;28;20235;-68
2022/01/14 10:41:29;;;;;;;6.23;2.97;;;;;;;5.92;100.00;100385.44;10463385;28;20231;-63
2022/01/14 10:46:33;;;;;;;6.17;2.90;;;;;;;6.00;100.00;100383.81;10463922;28;20582;-67
2022/01/14 10:51:37;;;;;;;7.10;2.80;;;;;;;6.01;100.00;100385.53;10463742;28;20224;-71
2022/01/14 10:56:40;;;;;;;6.27;2.73;;;;;;;5.99;100.00;100391.53;10463363;28;20671;-68
2022/01/14 11:01:45;;;;;;;4.83;2.40;;;;;;;6.08;100.00;100382.16;10462985;28;20224;-68
2022/01/14 11:06:48;;;;;;;6.70;2.63;;;;;;;6.13;100.00;100362.44;10462712;28;20233;-68
2022/01/14 11:11:51;;;;;;;7.10;2.10;;;;;;;6.09;100.00;100352.13;10462889;28;20222;-65
2022/01/14 11:16:56;;;;;;;4.20;1.67;;;;;;;6.14;100.00;100351.31;10462692;28;20217;-67
2022/01/14 11:27:22;;;;;;;4.03;1.93;;;;;;;6.29;100.00;100361.72;10462378;28;20295;-65
2022/01/14 11:32:27;;;;;;;5.27;2.07;;;;;;;6.36;100.00;100353.19;10462081;28;20520;-67
2022/01/14 11:37:35;;;;;;;5.63;2.53;;;;;;;6.34;100.00;100356.59;10461541;28;20666;-67
2022/01/14 11:42:43;;;;;;;6.27;2.30;;;;;;;6.40;100.00;100343.75;10461279;28;20229;-69
2022/01/14 11:48:04;;;;;;;5.50;2.67;;;;;;;6.38;100.00;100351.47;10461790;28;20228;-68
2022/01/14 11:53:43;;;;;;;5.83;2.07;;;;;;;6.45;100.00;100352.38;10500982;28;20224;-72
2022/01/14 11:58:46;;;;;;;4.63;2.07;;;;;;;6.54;100.00;100363.59;10501655;28;20666;-67
2022/01/14 12:03:51;;;;;;;4.57;1.80;;;;;;;6.64;100.00;100342.16;10501185;28;20316;-64
2022/01/14 12:09:03;;;;;;;5.50;2.00;;;;;;;6.68;100.00;100331.00;10501558;28;20254;-65
2022/01/14 12:14:07;;;;;;;4.47;1.93;;;;;;;6.73;100.00;100344.78;10501672;28;20216;-68
2022/01/14 12:19:17;;;;;;;28.53;16.63;;;;;;;6.88;100.00;100350.03;10501228;28;20228;-74
2022/01/14 12:24:52;;;;;;;5.93;2.10;;;;;;;6.78;100.00;100350.81;10501299;28;20292;-68
2022/01/14 12:30:23;;;;;;;6.20;2.17;;;;;;;6.84;100.00;100325.06;10489006;28;20337;-69
2022/01/14 12:35:33;;;;;;;6.33;2.40;;;;;;;6.81;100.00;100345.72;10499956;28;20571;-67
2022/01/14 12:40:40;;;;;;;7.27;2.50;;;;;;;6.86;100.00;100333.69;10500296;28;20236;-66
2022/01/14 12:46:11;;;;;;;22.30;12.07;;;;;;;7.00;100.00;100334.63;10501040;28;20323;-67
2022/01/14 12:51:19;;;;;;;9.10;3.27;;;;;;;7.04;100.00;100330.28;10500065;28;20269;-64
2022/01/14 12:56:26;;;;;;;24.63;14.43;;;;;;;7.18;100.00;100327.78;10500674;28;20219;-70
2022/01/14 13:01:35;;;;;;;9.47;2.33;;;;;;;7.16;100.00;100338.09;10499814;28;20291;-69
2022/01/14 13:06:48;;;;;;;6.50;2.10;;;;;;;7.14;100.00;100341.53;10500634;28;20740;-67
2022/01/14 13:11:57;;;;;;;6.27;1.90;;;;;;;7.17;100.00;100331.19;10499767;28;20778;-66
2022/01/14 13:17:03;;;;;;;6.53;1.73;;;;;;;7.18;100.00;100338.94;10500198;28;20599;-64
2022/01/14 13:22:12;;;;;;;4.93;1.90;;;;;;;7.16;100.00;100351.00;10499763;28;20269;-65
2022/01/14 13:27:22;;;;;;;3.83;1.50;;;;;;;7.22;100.00;100352.72;10500123;28;20220;-67
2022/01/14 13:32:28;;;;;;;7.97;2.27;;;;;;;7.26;100.00;100367.38;10499265;28;20333;-64
2022/01/14 13:37:31;;;;;;;8.23;2.40;;;;;;;7.27;100.00;100353.59;10499549;28;20246;-65
2022/01/14 13:42:37;;;;;;;5.83;1.80;;;;;;;7.13;100.00;100347.56;10498988;28;20564;-66
2022/01/14 13:47:41;;;;;;;8.37;2.53;;;;;;;7.19;100.00;100350.16;10499345;28;20270;-67
2022/01/14 13:52:48;;;;;;;8.93;1.90;;;;;;;7.14;100.00;100352.72;10498721;28;20299;-67
2022/01/14 13:58:03;;;;;;;8.00;2.30;;;;;;;7.12;100.00;100369.91;10498843;28;20228;-66
2022/01/14 14:03:15;;;;;;;19.93;11.40;;;;;;;7.15;100.00;100353.56;10498526;28;20227;-71
2022/01/14 14:08:34;;;;;;;8.53;2.90;;;;;;;7.46;100.00;100353.66;10470794;28;20292;-69
2022/01/14 14:19:00;;;;;;;11.10;2.57;;;;;;;7.34;100.00;100365.66;10464875;28;20650;-66
2022/01/14 14:24:05;;;;;;;12.07;2.30;;;;;;;7.06;100.00;100369.03;10464476;28;20221;-64
2022/01/14 14:29:25;;;;;;;10.07;2.20;;;;;;;6.98;100.00;100384.47;10464041;28;20193;-64
2022/01/14 14:34:29;;;;;;;5.77;2.00;;;;;;;6.82;100.00;100387.81;10462947;28;20304;-63
2022/01/14 14:39:33;;;;;;;7.40;1.93;;;;;;;6.79;100.00;100399.00;10463969;28;20705;-68
2022/01/14 14:44:40;;;;;;;5.47;1.77;;;;;;;6.82;100.00;100411.91;10464203;28;20236;-65
2022/01/14 14:49:43;;;;;;;8.67;2.10;;;;;;;6.89;100.00;100423.97;10463680;28;20197;-66
2022/01/14 14:54:47;;;;;;;10.03;2.10;;;;;;;6.93;100.00;100427.44;10463542;28;20246;-67
2022/01/14 14:59:52;;;;;;;5.57;1.80;;;;;;;6.89;100.00;100478.16;10463573;28;20223;-67
2022/01/14 15:04:56;;;;;;;8.67;1.60;;;;;;;6.79;100.00;100501.28;10462874;28;20670;-66
2022/01/14 15:10:00;;;;;;;3.53;0.90;;;;;;;5.88;100.00;100539.09;10463384;28;20304;-62
2022/01/14 15:15:09;;;;;;;5.80;1.20;;;;;;;5.61;100.00;100561.03;10463026;28;20217;-64
2022/01/14 15:20:12;;;;;;;2.90;0.83;;;;;;;5.24;100.00;100569.97;10462731;28;20542;-64
2022/01/14 15:25:15;;;;;;;4.03;1.13;;;;;;;4.98;100.00;100593.56;10461958;28;20221;-66
2022/01/14 15:30:21;;;;;;;46.83;25.00;;;;;;;4.86;100.00;100589.09;10462207;28;20723;-70
2022/01/14 15:35:25;;;;;;;5.87;1.37;;;;;;;4.72;100.00;100581.16;10470278;28;20223;-68
2022/01/14 15:40:30;;;;;;;2.20;0.50;;;;;;;4.58;100.00;100603.19;10503267;28;20298;-67
2022/01/14 15:45:38;;;;;;;4.70;0.80;;;;;;;4.61;100.00;100586.94;10470932;28;20239;-64
2022/01/14 15:50:43;;;;;;;3.50;0.97;;;;;;;4.51;100.00;100600.47;10461347;28;20217;-67
2022/01/14 15:55:47;;;;;;;4.67;1.00;;;;;;;4.57;100.00;100606.56;10461183;28;20212;-67
2022/01/14 16:00:52;;;;;;;3.83;0.90;;;;;;;4.62;100.00;100619.53;10461039;28;20221;-64
2022/01/14 16:05:55;;;;;;;2.30;0.63;;;;;;;4.63;100.00;100616.97;10491866;28;20674;-65
2022/01/14 16:10:59;;;;;;;2.63;0.70;;;;;;;4.54;100.00;100624.50;10501770;28;20295;-67
2022/01/14 16:16:04;;;;;;;3.87;0.87;;;;;;;4.64;100.00;100628.13;10501124;28;20298;-62
2022/01/14 16:21:08;;;;;;;3.63;1.00;;;;;;;4.69;100.00;100644.50;10502481;28;20226;-65
2022/01/14 16:26:11;;;;;;;3.07;0.90;;;;;;;4.65;100.00;100646.16;10501046;28;20228;-67
2022/01/14 16:31:16;;;;;;;5.13;1.30;;;;;;;4.60;100.00;100663.19;10501468;28;20268;-66
2022/01/14 16:36:19;;;;;;;4.70;1.47;;;;;;;4.67;100.00;100675.31;10499932;28;20284;-64
2022/01/14 16:41:22;;;;;;;7.40;1.60;;;;;;;4.65;100.00;100674.44;10500934;28;20212;-65
2022/01/14 16:46:27;;;;;;;4.43;1.50;;;;;;;4.64;100.00;100677.81;10500950;28;20226;-62
2022/01/14 16:51:32;;;;;;;7.43;1.27;;;;;;;4.63;100.00;100698.34;10500676;28;20216;-62
2022/01/14 16:56:36;;;;;;;3.40;1.30;;;;;;;4.67;100.00;100711.31;10500483;28;20233;-64
2022/01/14 17:01:40;;;;;;;5.57;1.40;;;;;;;4.66;100.00;100724.97;10500561;28;20212;-67
2022/01/14 17:06:44;;;;;;;8.07;1.40;;;;;;;4.57;100.00;100724.78;10500216;28;20293;-65
2022/01/14 17:11:47;;;;;;;5.53;1.30;;;;;;;4.49;100.00;100746.03;10499873;28;20315;-64
2022/01/14 17:16:52;;;;;;;5.53;1.20;;;;;;;4.47;100.00;100740.88;10500006;28;20212;-64
2022/01/14 17:21:55;;;;;;;7.33;1.60;;;;;;;4.48;100.00;100752.91;10500236;28;20219;-65
2022/01/14 17:26:59;;;;;;;7.70;1.43;;;;;;;4.33;100.00;100764.56;10500169;28;20299;-65
2022/01/14 17:32:04;;;;;;;4.77;1.37;;;;;;;4.37;100.00;100772.34;10499969;28;20208;-64
2022/01/14 17:37:07;;;;;;;5.17;1.70;;;;;;;4.35;100.00;100788.56;10500023;28;20640;-63
2022/01/14 17:42:16;;;;;;;10.33;1.90;;;;;;;4.30;100.00;100793.63;10499782;28;20219;-66
2022/01/14 17:47:20;;;;;;;4.93;1.70;;;;;;;4.22;100.00;100802.84;10499545;28;20224;-67
2022/01/14 17:52:24;;;;;;;11.70;3.33;;;;;;;4.33;99.78;100810.81;10505145;28;20239;-65
2022/01/14 17:57:27;;;;;;;6.83;1.80;;;;;;;4.28;99.26;100810.69;10505620;28;20548;-67
2022/01/14 18:02:32;;;;;;;6.27;1.97;;;;;;;4.29;98.74;100814.13;10505823;28;20224;-65
2022/01/14 18:07:37;;;;;;;8.63;2.10;;;;;;;4.29;97.35;100820.16;10504938;28;20232;-62
2022/01/14 18:12:57;;;;;;;9.70;3.40;;;;;;;4.29;96.96;100821.84;10505181;28;20320;-65
2022/01/14 18:18:02;;;;;;;3.97;1.53;;;;;;;4.22;95.93;100833.69;10505410;28;20219;-67
2022/01/14 18:23:05;;;;;;;8.10;2.10;;;;;;;4.24;94.68;100839.72;10505918;28;20226;-64
2022/01/14 18:28:09;;;;;;;6.30;1.67;;;;;;;4.25;94.50;100835.44;10505704;28;20232;-70
2022/01/14 18:33:14;;;;;;;8.90;1.93;;;;;;;4.26;94.70;100834.63;10504735;28;20222;-66
2022/01/14 18:38:17;;;;;;;6.20;1.40;;;;;;;4.27;93.78;100849.19;10505492;28;20295;-66
2022/01/14 18:43:22;;;;;;;8.97;1.70;;;;;;;4.22;92.96;100853.34;10505032;28;20555;-66
2022/01/14 18:48:27;;;;;;;8.50;2.93;;;;;;;4.18;93.40;100857.56;10504979;28;20239;-65
2022/01/14 18:53:31;;;;;;;13.93;2.83;;;;;;;4.22;93.84;100863.63;10504623;28;20209;-65
2022/01/14 18:58:34;;;;;;;11.73;2.23;;;;;;;4.15;92.93;100875.47;10504494;28;20541;-63
2022/01/14 19:03:40;;;;;;;8.50;2.60;;;;;;;4.09;93.77;100880.44;10502290;28;20232;-65
2022/01/14 19:08:43;;;;;;;8.20;2.20;;;;;;;4.10;93.82;100877.06;10501571;28;20208;-67
2022/01/14 19:13:52;;;;;;;9.63;2.60;;;;;;;4.00;93.07;100893.09;10473682;28;20216;-68
2022/01/14 19:18:57;;;;;;;23.13;8.47;;;;;;;3.92;94.15;100899.72;10461765;28;20220;-68
2022/01/14 19:24:01;;;;;;;9.43;2.50;;;;;;;4.01;92.81;100893.94;10461776;28;20247;-66
2022/01/14 19:29:07;;;;;;;13.13;2.80;;;;;;;4.05;91.72;100900.88;10461896;28;20232;-66
2022/01/14 19:34:12;;;;;;;13.07;2.43;;;;;;;4.07;90.71;100915.47;10462253;28;20308;-64
2022/01/14 19:39:18;;;;;;;11.87;2.17;;;;;;;4.09;88.90;100918.97;10460989;28;20239;-67
2022/01/14 19:44:21;;;;;;;43.03;24.57;;;;;;;4.17;88.28;100924.31;10461748;28;20312;-66
2022/01/14 19:49:27;;;;;;;9.87;2.53;;;;;;;4.08;88.97;100917.25;10481610;28;20692;-62
2022/01/14 19:54:31;;;;;;;10.47;2.23;;;;;;;4.03;87.52;100941.94;10502699;28;20220;-62
2022/01/14 19:59:35;;;;;;;12.27;1.90;;;;;;;4.04;85.90;100935.13;10463249;28;20252;-63
2022/01/14 20:04:40;;;;;;;11.57;2.33;;;;;;;4.05;85.89;100942.84;10500969;28;20260;-64
2022/01/14 20:09:43;;;;;;;10.40;2.33;;;;;;;4.02;85.25;100936.78;10501839;28;20216;-66
2022/01/14 20:14:47;;;;;;;11.93;2.53;;;;;;;3.93;85.13;100946.81;10500799;28;20885;-63
2022/01/14 20:19:51;;;;;;;12.80;3.07;;;;;;;3.84;85.64;100936.28;10501292;28;20248;-68
2022/01/14 20:24:55;;;;;;;9.57;2.90;;;;;;;3.85;84.90;100944.03;10500336;28;20219;-65
2022/01/14 20:29:58;;;;;;;16.03;3.20;;;;;;;3.83;83.45;100940.53;10501094;28;20227;-66
2022/01/14 20:35:04;;;;;;;10.97;3.27;;;;;;;3.86;82.45;100943.22;10500754;28;20315;-64
2022/01/14 20:40:10;;;;;;;8.47;1.93;;;;;;;3.81;83.24;100946.47;10500533;28;20223;-64
2022/01/14 20:45:15;;;;;;;8.13;2.30;;;;;;;3.81;83.49;100955.06;10500596;28;20619;-64
2022/01/14 20:50:21;;;;;;;10.33;2.27;;;;;;;3.79;83.29;100954.16;10500054;28;20306;-66
2022/01/14 20:55:27;;;;;;;12.03;2.33;;;;;;;3.76;83.38;100964.34;10500350;28;20255;-64
2022/01/14 21:00:30;;;;;;;10.47;2.80;;;;;;;3.68;83.19;100960.69;10499475;28;20295;-63
2022/01/14 21:05:35;;;;;;;7.37;2.00;;;;;;;3.56;84.24;100968.03;10499626;28;20228;-63
2022/01/14 21:10:40;;;;;;;8.17;2.17;;;;;;;3.71;83.38;100970.19;10499621;28;20192;-64
2022/01/14 21:15:45;;;;;;;9.90;3.27;;;;;;;3.63;83.75;100977.66;10499804;28;20207;-69
2022/01/14 21:20:55;;;;;;;13.40;2.43;;;;;;;3.48;85.05;100970.41;10499921;28;20596;-66
2022/01/14 21:26:01;;;;;;;9.93;2.83;;;;;;;3.43;84.98;100976.25;10507907;28;20226;-66
2022/01/14 21:31:04;;;;;;;23.37;4.10;;;;;;;3.49;85.36;100972.16;10508290;28;20195;-62
2022/01/14 21:36:09;;;;;;;10.97;2.47;;;;;;;3.41;84.68;100985.59;10507939;28;20318;-67
2022/01/14 21:41:12;;;;;;;9.57;2.40;;;;;;;3.37;85.41;100989.75;10508017;28;20251;-69
2022/01/14 21:46:15;;;;;;;8.53;2.30;;;;;;;3.36;84.74;100982.91;10507124;28;20652;-66
2022/01/14 21:51:20;;;;;;;9.47;2.93;;;;;;;3.35;83.83;100990.53;10507463;28;20202;-67
2022/01/14 21:56:24;;;;;;;11.23;2.73;;;;;;;3.30;83.92;100984.41;10506558;28;20214;-69
2022/01/14 22:01:27;;;;;;;9.77;2.50;;;;;;;3.28;83.28;100997.19;10507028;28;20200;-64
2022/01/14 22:06:32;;;;;;;15.33;2.97;;;;;;;3.17;84.53;101007.97;10506308;28;20228;-62
2022/01/14 22:11:35;;;;;;;10.87;2.67;;;;;;;3.20;84.14;101014.06;10506332;28;20295;-63
2022/01/14 22:16:38;;;;;;;8.27;2.53;;;;;;;3.25;82.52;101020.19;10505480;28;20220;-62
2022/01/14 22:21:43;;;;;;;9.17;2.30;;;;;;;3.30;82.11;101017.75;10506164;28;20253;-66
2022/01/14 22:26:46;;;;;;;12.17;2.90;;;;;;;3.28;81.51;101021.94;10505252;28;20307;-65
2022/01/14 22:31:49;;;;;;;10.93;2.80;;;;;;;3.17;81.26;101034.47;10491547;28;20216;-64
2022/01/14 22:36:54;;;;;;;8.57;2.63;;;;;;;3.15;82.15;101048.06;10462487;28;20226;-65
2022/01/14 22:41:59;;;;;;;8.87;2.80;;;;;;;3.16;83.06;101042.97;10464269;28;20219;-68
2022/01/14 22:47:02;;;;;;;12.57;3.03;;;;;;;3.07;82.87;101044.41;10463947;28;20237;-68
2022/01/14 22:52:07;;;;;;;7.63;2.33;;;;;;;3.18;81.23;101038.78;10463942;28;20270;-64
2022/01/14 22:57:11;;;;;;;10.27;2.33;;;;;;;3.12;82.02;101045.41;10463784;28;20212;-67
2022/01/14 23:02:14;;;;;;;10.77;2.63;;;;;;;3.10;81.98;101049.63;10462531;28;20677;-63
2022/01/14 23:07:19;;;;;;;10.93;2.93;;;;;;;3.09;82.33;101045.34;10473637;28;20233;-62
2022/01/14 23:12:25;;;;;;;12.50;3.23;;;;;;;2.98;82.04;101050.13;10462205;28;20216;-65
2022/01/14 23:17:29;;;;;;;12.20;2.27;;;;;;;2.99;80.78;101049.28;10463054;28;20220;-69
2022/01/14 23:22:33;;;;;;;9.17;2.10;;;;;;;2.99;81.04;101051.84;10461919;28;20649;-64
2022/01/14 23:27:37;;;;;;;10.27;2.27;;;;;;;3.01;80.62;101072.41;10461995;28;20252;-66
2022/01/14 23:32:41;;;;;;;8.33;2.13;;;;;;;3.02;79.66;101051.94;10461875;28;20223;-68
2022/01/14 23:37:46;;;;;;;8.47;1.90;;;;;;;3.00;80.17;101063.84;10461627;28;20221;-66
2022/01/14 23:42:52;;;;;;;23.93;11.03;;;;;;;3.24;79.20;101072.31;10461741;28;20216;-65
2022/01/14 23:47:56;;;;;;;9.93;2.90;;;;;;;2.97;78.64;101061.19;10460118;28;20248;-67